Westminster, MD

3:20 PM EST on February 17, 2018 (GMT -0500)
Carroll County Regional-Poage

Weather History for KDMW - March, 2013

Change the Weather History Date:

Wednesday, March 20, 2013

  Actual Average (KTHV) Record (KTHV)
Temperature  
Mean Temperature 39 °F -  
Max Temperature 48 °F 0 °F 73 °F (2012)
Min Temperature 30 °F - 19 °F (2001)
Degree Days  
Heating Degree Days 26    
Moisture  
Dew Point 13 °F    
Average Humidity 37    
Maximum Humidity 65    
Minimum Humidity 17    
Precipitation  
Precipitation 0.00 in - - ()
Sea Level Pressure  
Sea Level Pressure 29.87 in    
Wind  
Wind Speed 11 mph (West)    
Max Wind Speed 20 mph    
Max Gust Speed 28 mph    
Visibility 10 miles    
Events      
Averages and records for this station are not official NWS values.
T = Trace of Precipitation, MM = Missing Value Source: NWS Daily Summary

Daily Weather History Graph

Daily Weather History Graph

Search for Another Location

Airport or City:

Trip Planner

Search our weather history database for the weather conditions in past years. The results will help you decide how hot, cold, wet, or windy it might be!

Date:

Astronomy

Mar. 20, 2013 Rise Set
Actual Time 7:11 AM EDT 7:20 PM EDT
Civil Twilight 6:44 AM EDT 7:47 PM EDT
Nautical Twilight 6:12 AM EDT 8:18 PM EDT
Astronomical Twilight 5:40 AM EDT 8:50 PM EDT
Moon 12:54 PM EDT (3/20) 2:48 AM EDT (3/20)
Length of Visible Light 13h 02m
Length of Day
12h 09m
First Quarter, 59% of the Moon is Illuminated
Mar 20
First Quarter
Mar 27
Full
Apr 3
Last Quarter
Apr 10
New
Apr 18
First Quarter

Hourly Weather History & Observations

Time (EDT) Temp. Windchill Dew Point Humidity Pressure Visibility Wind Dir Wind Speed Gust Speed Precip Events Conditions
12:00 AM 37.4 °F 30.3 °F 21.2 °F 52% 29.89 in 10.0 mi WNW 10.4 mph 23.0 mph N/A   Scattered Clouds
12:20 AM 35.6 °F 28.0 °F 21.2 °F 56% 29.90 in 10.0 mi NW 10.4 mph - N/A   Clear
12:40 AM 35.6 °F 25.5 °F 19.4 °F 52% 29.89 in 10.0 mi WNW 17.3 mph 24.2 mph N/A   Scattered Clouds
1:00 AM 35.6 °F 26.6 °F 15.8 °F 44% 29.90 in 10.0 mi West 13.8 mph 25.3 mph N/A   Scattered Clouds
1:20 AM 35.6 °F 27.1 °F 15.8 °F 44% 29.91 in 10.0 mi WNW 12.7 mph 24.2 mph N/A   Scattered Clouds
1:40 AM 35.6 °F 26.2 °F 17.6 °F 48% 29.92 in 10.0 mi WNW 15.0 mph 25.3 mph N/A   Scattered Clouds
2:00 AM 35.6 °F 28.0 °F 17.6 °F 48% 29.93 in 10.0 mi WNW 10.4 mph 20.7 mph N/A   Scattered Clouds
2:20 AM 35.6 °F 25.9 °F 14.0 °F 41% 29.93 in 10.0 mi WNW 16.1 mph 21.9 mph N/A   Scattered Clouds
2:40 AM 35.6 °F 26.6 °F 12.2 °F 38% 29.93 in 10.0 mi WNW 13.8 mph - N/A   Scattered Clouds
3:00 AM 33.8 °F 26.4 °F 12.2 °F 41% 29.94 in 10.0 mi West 9.2 mph 19.6 mph N/A   Scattered Clouds
3:20 AM 33.8 °F 25.8 °F 12.2 °F 41% 29.94 in 10.0 mi West 10.4 mph - N/A   Scattered Clouds
4:00 AM 33.8 °F 29.6 °F 15.8 °F 48% 29.93 in 10.0 mi West 4.6 mph - N/A   Scattered Clouds
4:20 AM 33.8 °F 28.6 °F 15.8 °F 48% 29.93 in 10.0 mi West 5.8 mph - N/A   Scattered Clouds
4:40 AM 33.8 °F 25.8 °F 14.0 °F 44% 29.93 in 10.0 mi West 10.4 mph 18.4 mph N/A   Scattered Clouds
5:00 AM 32.0 °F 25.6 °F 15.8 °F 51% 29.93 in 10.0 mi West 6.9 mph - N/A   Scattered Clouds
5:20 AM 32.0 °F 25.6 °F 15.8 °F 51% 29.94 in 10.0 mi West 6.9 mph - N/A   Scattered Clouds
5:40 AM 32.0 °F 24.8 °F 15.8 °F 51% 29.94 in 10.0 mi West 8.1 mph - N/A   Scattered Clouds
6:05 AM 32.0 °F 24.8 °F 15.8 °F 51% 29.94 in 10.0 mi West 8.1 mph - N/A   Scattered Clouds
6:25 AM 32.0 °F 24.2 °F 15.8 °F 51% 29.94 in 10.0 mi West 9.2 mph - N/A   Scattered Clouds
6:45 AM 30.2 °F 22.6 °F 15.8 °F 55% 29.94 in 10.0 mi West 8.1 mph - N/A   Scattered Clouds
7:25 AM 32.0 °F 24.2 °F 15.8 °F 51% 29.95 in 10.0 mi West 9.2 mph - N/A   Scattered Clouds
7:45 AM 32.0 °F 24.2 °F 15.8 °F 51% 29.94 in 10.0 mi West 9.2 mph - N/A   Scattered Clouds
8:05 AM 32.0 °F 25.6 °F 15.8 °F 51% 29.94 in 10.0 mi West 6.9 mph - N/A   Clear
8:25 AM 32.0 °F 25.6 °F 15.8 °F 51% 29.95 in 10.0 mi West 6.9 mph - N/A   Scattered Clouds
9:05 AM 33.8 °F 25.3 °F 14.0 °F 44% 29.95 in 10.0 mi WSW 11.5 mph - N/A   Clear
9:25 AM 35.6 °F 27.1 °F 14.0 °F 41% 29.95 in 10.0 mi West 12.7 mph 23.0 mph N/A   Clear
9:45 AM 35.6 °F 27.1 °F 14.0 °F 41% 29.95 in 10.0 mi WSW 12.7 mph 18.4 mph N/A   Clear
10:05 AM 35.6 °F 24.8 °F 14.0 °F 41% 29.95 in 10.0 mi WSW 19.6 mph 26.5 mph N/A   Clear
10:25 AM 37.4 °F 27.5 °F 12.2 °F 36% 29.96 in 10.0 mi West 18.4 mph 26.5 mph N/A   Clear
10:45 AM 37.4 °F 28.5 °F 12.2 °F 36% 29.95 in 10.0 mi West 15.0 mph 21.9 mph N/A   Clear
11:05 AM 39.2 °F 31.6 °F 12.2 °F 33% 29.95 in 10.0 mi WSW 12.7 mph 23.0 mph N/A   Clear
11:25 AM 39.2 °F 29.8 °F 12.2 °F 33% 29.94 in 10.0 mi West 18.4 mph 23.0 mph N/A   Clear
11:45 AM 39.2 °F 30.5 °F 12.2 °F 33% 29.93 in 10.0 mi West 16.1 mph 25.3 mph N/A   Clear
12:05 PM 41.0 °F 33.9 °F 12.2 °F 31% 29.93 in 10.0 mi West 12.7 mph 19.6 mph N/A   Clear
12:25 PM 42.8 °F 35.4 °F 12.2 °F 29% 29.92 in 10.0 mi West 15.0 mph 25.3 mph N/A   Clear
12:45 PM 42.8 °F 35.8 °F 10.4 °F 27% 29.91 in 10.0 mi West 13.8 mph 24.2 mph N/A   Scattered Clouds
1:05 PM 42.8 °F 35.4 °F 10.4 °F 27% 29.90 in 10.0 mi WSW 15.0 mph 24.2 mph N/A   Clear
1:25 PM 44.6 °F 36.6 °F 8.6 °F 23% 29.89 in 10.0 mi West 19.6 mph 27.6 mph N/A   Scattered Clouds
1:45 PM 44.6 °F 37.8 °F 10.4 °F 25% 29.88 in 10.0 mi West 15.0 mph 20.7 mph N/A   Scattered Clouds
2:05 PM 44.6 °F 38.1 °F 10.4 °F 25% 29.87 in 10.0 mi West 13.8 mph 21.9 mph N/A   Scattered Clouds
2:25 PM 44.6 °F 37.8 °F 10.4 °F 25% 29.85 in 10.0 mi West 15.0 mph 20.7 mph N/A   Scattered Clouds
2:45 PM 44.6 °F 38.4 °F 8.6 °F 23% 29.84 in 10.0 mi West 12.7 mph - N/A   Scattered Clouds
3:05 PM 44.6 °F 37.4 °F 6.8 °F 21% 29.83 in 10.0 mi WSW 16.1 mph 21.9 mph N/A   Scattered Clouds
3:25 PM 44.6 °F 38.1 °F 6.8 °F 21% 29.82 in 10.0 mi West 13.8 mph 19.6 mph N/A   Scattered Clouds
4:05 PM 46.4 °F 41.5 °F 6.8 °F 20% 29.80 in 10.0 mi WSW 10.4 mph 16.1 mph N/A   Clear
4:25 PM 48.2 °F - 8.6 °F 20% 29.79 in 10.0 mi West 11.5 mph 18.4 mph N/A   Scattered Clouds
4:45 PM 46.4 °F 40.1 °F 5.0 °F 18% 29.78 in 10.0 mi SW 15.0 mph 23.0 mph N/A   Scattered Clouds
5:05 PM 48.2 °F - 5.0 °F 17% 29.78 in 10.0 mi West 10.4 mph 25.3 mph N/A   Scattered Clouds
5:25 PM 48.2 °F - 6.8 °F 19% 29.77 in 10.0 mi West 17.3 mph 21.9 mph N/A   Scattered Clouds
5:45 PM 48.2 °F - 8.6 °F 20% 29.77 in 10.0 mi West 17.3 mph 25.3 mph N/A   Scattered Clouds
6:05 PM 46.4 °F 40.1 °F 3.2 °F 17% 29.77 in 10.0 mi WSW 15.0 mph 23.0 mph N/A   Clear
6:25 PM 46.4 °F 40.7 °F 3.2 °F 17% 29.76 in 10.0 mi West 12.7 mph - N/A   Scattered Clouds
6:45 PM 46.4 °F 40.4 °F 3.2 °F 17% 29.76 in 10.0 mi West 13.8 mph 18.4 mph N/A   Scattered Clouds
7:05 PM 46.4 °F 41.9 °F 6.8 °F 20% 29.77 in 10.0 mi West 9.2 mph - N/A   Scattered Clouds
7:25 PM 46.4 °F 40.7 °F 6.8 °F 20% 29.77 in 10.0 mi West 12.7 mph - N/A   Mostly Cloudy
7:45 PM 44.6 °F 42.2 °F 8.6 °F 23% 29.77 in 10.0 mi NW 4.6 mph - N/A   Overcast
8:05 PM 44.6 °F 43.1 °F 10.4 °F 25% 29.78 in 10.0 mi NNW 3.5 mph - N/A   Overcast
8:25 PM 42.8 °F - 10.4 °F 27% 29.78 in 10.0 mi Calm Calm - N/A   Overcast
9:05 PM 42.8 °F - 14.0 °F 31% 29.80 in 10.0 mi Calm Calm - N/A   Mostly Cloudy
9:25 PM 41.0 °F - 17.6 °F 39% 29.80 in 10.0 mi Calm Calm - N/A   Scattered Clouds
9:45 PM 39.2 °F 33.6 °F 17.6 °F 42% 29.81 in 10.0 mi NW 8.1 mph - N/A   Mostly Cloudy
10:05 PM 39.2 °F 37.0 °F 19.4 °F 45% 29.81 in 10.0 mi NNW 3.5 mph - N/A   Mostly Cloudy
10:25 PM 37.4 °F 32.8 °F 19.4 °F 48% 29.80 in 10.0 mi North 5.8 mph - N/A   Scattered Clouds
10:45 PM 37.4 °F 32.1 °F 21.2 °F 52% 29.80 in 10.0 mi North 6.9 mph - N/A   Mostly Cloudy
11:05 PM 37.4 °F 32.1 °F 21.2 °F 52% 29.80 in 10.0 mi NNW 6.9 mph - N/A   Mostly Cloudy
11:25 PM 37.4 °F 34.9 °F 24.8 °F 60% 29.81 in 10.0 mi NNW 3.5 mph - N/A   Scattered Clouds
11:45 PM 35.6 °F 32.8 °F 24.8 °F 65% 29.81 in 10.0 mi NNW 3.5 mph - N/A   Mostly Cloudy